首页
METAR-TAF:

METAR-TAF

机场 :

博弗尚, 比利时

纬度: 50-45N, 经度: 004-46E, 海拔: 105米

当前天气观测

该预报发布于12分钟前的00:23 UTC
风速2节,风向多变
温度 20°C
湿度 94%
气压 1022 hPa
能見度: 3900
轻雾

METAR: EBBE 260023Z AUTO VRB02KT 3900 BR NCD 20/19 Q1022 GRN

时间: 02:35 (00:35 UTC)

预报

该预报发布于8小时和54分钟前的15:41 UTC
预报有效从25日的 19点(UTC)到 26日的 07点(UTC)
风速5节,风向西
能见度10公里或以上
散云层高于3000英尺
多云层高于25000英尺
成为
从 25日的 21点(UTC)到 22日的 23点(UTC)
风速7节,风向西北
散云层高于11000英尺
多云层高于25000英尺
短暂存在
从 25日的 21点(UTC)到 26日的 02点(UTC)
能見度: 5000
轻雾
短暂存在
从 26日的 00点(UTC)到 26日的 07点(UTC)
能見度: 4000
轻雾

TAF: EBBE 251541Z 2519/2607 27005KT 9999 SCT030 BKN250 BECMG 2521/2223 32007KT SCT110 BKN250 TEMPO 2521/2602 5000 BR TEMPO 2600/2607 4000 BR

超过4000个机场的气象观测和天气预报(METAR&TAF报告)。

可查询的气象台以黄色和红色小点在地图上表示。

将鼠标移到小点上方,可查看气象台名称。

然后点击查看天气观测和预报。

如需切换地图:点击带黑十字的绿色按钮放大地图;点击带横线的绿色按钮缩小地图;或者点击绿色箭头查看邻近地区的地图。


METAR-TAF: